createdAt,value
2018-01-10T00:01:41.642Z,15.90
2018-01-10T00:06:50.459Z,15.90
2018-01-10T00:11:52.588Z,16.73
2018-01-10T00:16:53.895Z,16.10
2018-01-10T00:21:55.995Z,16.67
2018-01-10T00:26:58.043Z,17.60
2018-01-10T00:31:59.374Z,17.27
2018-01-10T00:37:00.702Z,15.30
2018-01-10T00:42:02.023Z,17.70
2018-01-10T00:47:03.355Z,16.93
2018-01-10T00:52:04.985Z,16.30
2018-01-10T00:57:06.322Z,16.77
2018-01-10T01:02:07.687Z,17.10
2018-01-10T01:07:08.996Z,15.67
2018-01-10T01:12:10.327Z,15.70
2018-01-10T01:17:12.431Z,15.07
2018-01-10T01:22:14.494Z,15.00
2018-01-10T01:27:15.832Z,14.40
2018-01-10T01:32:17.882Z,15.90
2018-01-10T01:37:19.222Z,16.13
2018-01-10T01:42:21.267Z,15.03
2018-01-10T01:47:22.593Z,16.30
2018-01-10T01:52:23.951Z,15.33
2018-01-10T01:57:25.288Z,15.83
2018-01-10T02:02:26.639Z,14.50
2018-01-10T02:07:27.989Z,15.60
2018-01-10T02:12:30.074Z,14.87
2018-01-10T02:17:31.452Z,14.20
2018-01-10T02:22:32.818Z,14.00
2018-01-10T02:27:34.677Z,14.73
2018-01-10T02:32:36.737Z,14.20
2018-01-10T02:37:38.040Z,14.00
2018-01-10T02:42:39.356Z,14.27
2018-01-10T02:47:40.718Z,14.00
2018-01-10T02:52:42.045Z,14.80
2018-01-10T02:57:43.397Z,14.73
2018-01-10T03:02:44.727Z,16.43
2018-01-10T03:07:46.039Z,15.93
2018-01-10T03:12:47.357Z,15.00
2018-01-10T03:17:48.655Z,14.70
2018-01-10T03:22:49.998Z,14.70
2018-01-10T03:27:51.331Z,13.27
2018-01-10T03:32:59.491Z,14.43
2018-01-10T03:38:00.820Z,14.30
2018-01-10T03:43:02.154Z,14.93
2018-01-10T03:48:03.476Z,15.60
2018-01-10T03:53:05.578Z,15.67
2018-01-10T03:58:06.875Z,15.53
2018-01-10T04:03:08.274Z,16.40
2018-01-10T04:08:09.600Z,16.03
2018-01-10T04:13:10.916Z,16.60
2018-01-10T04:18:12.295Z,16.50
2018-01-10T04:23:13.642Z,16.53
2018-01-10T04:28:14.958Z,16.13
2018-01-10T04:33:16.275Z,14.60
2018-01-10T04:38:17.631Z,17.40
2018-01-10T04:43:18.964Z,14.33
2018-01-10T04:48:20.274Z,17.00
2018-01-10T04:53:22.338Z,15.60
2018-01-10T04:58:23.658Z,15.00
2018-01-10T05:03:25.993Z,16.13
2018-01-10T05:08:28.084Z,15.40
2018-01-10T05:13:29.428Z,15.47
2018-01-10T05:18:31.121Z,15.63
2018-01-10T05:23:32.408Z,15.40
2018-01-10T05:28:33.910Z,16.00
2018-01-10T05:33:36.026Z,14.90
2018-01-10T05:38:37.336Z,14.87
2018-01-10T05:43:38.892Z,16.63
2018-01-10T05:48:40.219Z,15.20
2018-01-10T05:53:41.565Z,16.70
2018-01-10T05:58:42.896Z,13.60
2018-01-10T06:03:45.020Z,15.60
2018-01-10T06:08:47.062Z,15.80
2018-01-10T06:13:48.440Z,15.13
2018-01-10T06:18:52.215Z,15.53
2018-01-10T06:23:53.622Z,15.90
2018-01-10T06:28:55.501Z,13.80
2018-01-10T06:33:56.827Z,15.70
2018-01-10T06:38:58.133Z,15.03
2018-01-10T06:44:00.199Z,14.60
2018-01-10T06:49:01.653Z,14.03
2018-01-10T06:54:04.107Z,15.20
2018-01-10T06:59:05.823Z,15.10
2018-01-10T07:04:07.900Z,16.00
2018-01-10T07:09:09.256Z,15.30
2018-01-10T07:14:10.564Z,14.50
2018-01-10T07:19:11.903Z,15.33
2018-01-10T07:24:14.016Z,17.63
2018-01-10T07:29:15.332Z,16.17
2018-01-10T07:34:16.693Z,15.63
2018-01-10T07:39:18.009Z,17.50
2018-01-10T07:44:19.370Z,17.70
2018-01-10T07:49:20.687Z,15.90
2018-01-10T07:54:22.043Z,17.90
2018-01-10T07:59:23.362Z,17.00
2018-01-10T08:04:25.430Z,18.60
2018-01-10T08:09:26.755Z,18.93
2018-01-10T08:14:28.836Z,16.83
2018-01-10T08:19:30.171Z,17.70
2018-01-10T08:24:31.559Z,17.97
2018-01-10T08:29:32.924Z,17.03
2018-01-10T08:34:35.067Z,17.17
2018-01-10T08:39:36.388Z,17.17
2018-01-10T08:44:37.708Z,16.40
2018-01-10T08:49:39.759Z,17.70
2018-01-10T08:54:41.113Z,17.20
2018-01-10T08:59:43.171Z,17.23
2018-01-10T09:04:44.472Z,19.50
2018-01-10T09:09:45.813Z,18.00
2018-01-10T09:14:47.142Z,16.60
2018-01-10T09:19:48.446Z,18.93
2018-01-10T09:24:49.764Z,18.07
2018-01-10T09:29:51.077Z,17.70
2018-01-10T09:34:52.416Z,17.57
2018-01-10T09:39:53.776Z,17.43
2018-01-10T09:44:55.077Z,18.20
2018-01-10T09:49:56.391Z,16.33
2018-01-10T09:54:57.731Z,16.60
2018-01-10T09:59:59.047Z,16.27
2018-01-10T10:05:00.393Z,16.00
2018-01-10T10:10:01.854Z,17.73
2018-01-10T10:15:03.412Z,16.10
2018-01-10T10:20:04.768Z,16.23
2018-01-10T10:25:06.820Z,15.43
2018-01-10T10:30:08.181Z,16.97
2018-01-10T10:35:09.516Z,17.20
2018-01-10T10:40:10.940Z,15.90
2018-01-10T10:45:13.003Z,16.13
2018-01-10T10:50:14.318Z,14.90
2018-01-10T10:55:15.639Z,15.53
2018-01-10T11:00:16.967Z,14.97
2018-01-10T11:05:27.762Z,15.10
2018-01-10T11:10:29.087Z,14.73
2018-01-10T11:15:30.433Z,14.80
2018-01-10T11:20:31.754Z,14.60
2018-01-10T11:25:33.087Z,14.73
2018-01-10T11:30:34.417Z,15.17
2018-01-10T11:35:35.755Z,15.27
2018-01-10T11:40:38.010Z,15.03
2018-01-10T11:45:39.388Z,14.07
2018-01-10T11:50:41.224Z,14.20
2018-01-10T11:55:43.335Z,13.47
2018-01-10T12:00:44.687Z,11.90
2018-01-10T12:05:46.019Z,12.37
2018-01-10T12:10:47.328Z,12.17
2018-01-10T12:15:49.462Z,13.00
2018-01-10T12:20:50.827Z,11.00
2018-01-10T12:25:53.027Z,11.80
2018-01-10T12:30:54.367Z,10.50
2018-01-10T12:35:56.223Z,11.00
2018-01-10T12:40:58.546Z,10.70
2018-01-10T12:46:00.280Z,12.13
2018-01-10T12:51:01.636Z,10.90
2018-01-10T12:56:03.879Z,8.23
2018-01-10T13:01:05.451Z,8.57
2018-01-10T13:06:07.508Z,8.87
2018-01-10T13:11:09.136Z,8.93
2018-01-10T13:16:10.915Z,9.30
2018-01-10T13:21:13.417Z,9.20
2018-01-10T13:26:14.755Z,8.53
2018-01-10T13:31:16.121Z,9.63
2018-01-10T13:36:17.448Z,8.67
2018-01-10T13:41:18.902Z,9.57
2018-01-10T13:46:20.279Z,9.57
2018-01-10T13:51:21.645Z,11.23
2018-01-10T13:56:23.061Z,13.13
2018-01-10T14:01:24.413Z,10.63
2018-01-10T14:06:26.088Z,10.20
2018-01-10T14:11:27.466Z,10.43
2018-01-10T14:16:29.807Z,12.60
2018-01-10T14:21:31.375Z,12.87
2018-01-10T14:26:33.444Z,12.20
2018-01-10T14:31:34.771Z,10.63
2018-01-10T14:36:36.820Z,9.50
2018-01-10T14:41:38.131Z,10.10
2018-01-10T14:46:39.771Z,9.47
2018-01-10T14:51:41.833Z,9.20
2018-01-10T14:56:43.182Z,8.77
2018-01-10T15:01:44.504Z,9.93
2018-01-10T15:06:45.849Z,10.50
2018-01-10T15:11:47.935Z,13.07
2018-01-10T15:16:50.033Z,42.60
2018-01-10T15:21:51.408Z,19.67
2018-01-10T15:26:52.723Z,27.87
2018-01-10T15:31:54.033Z,17.47
2018-01-10T15:36:56.220Z,11.57
2018-01-10T15:41:58.300Z,14.87
2018-01-10T15:46:59.619Z,12.63
2018-01-10T15:52:02.025Z,12.93
2018-01-10T15:57:03.366Z,10.33
2018-01-10T16:02:04.711Z,11.77
2018-01-10T16:07:06.033Z,11.00
2018-01-10T16:12:07.333Z,17.33
2018-01-10T16:17:08.730Z,11.23
2018-01-10T16:22:10.048Z,12.40
2018-01-10T16:27:11.363Z,12.77
2018-01-10T16:32:13.440Z,12.63
2018-01-10T16:37:14.907Z,12.00
2018-01-10T16:42:16.219Z,12.73
2018-01-10T16:47:17.563Z,16.50
2018-01-10T16:52:18.936Z,21.30
2018-01-10T16:57:20.365Z,18.23
2018-01-10T17:02:21.831Z,13.70
2018-01-10T17:07:23.239Z,12.63
2018-01-10T17:12:24.578Z,11.73
2018-01-10T17:17:25.879Z,13.30
2018-01-10T17:22:27.952Z,11.17
2018-01-10T17:27:29.282Z,11.63
2018-01-10T17:32:31.335Z,10.63
2018-01-10T17:37:32.662Z,13.20
2018-01-10T17:42:33.992Z,11.47
2018-01-10T17:47:35.329Z,11.50
2018-01-10T17:52:36.653Z,10.70
2018-01-10T17:57:37.971Z,11.20
2018-01-10T18:02:39.358Z,19.60
2018-01-10T18:07:40.680Z,14.47
2018-01-10T18:12:42.039Z,11.40
2018-01-10T18:17:43.387Z,12.47
2018-01-10T18:22:45.474Z,16.83
2018-01-10T18:27:46.785Z,18.50
2018-01-10T18:32:48.823Z,16.60
2018-01-10T18:37:50.157Z,14.80
2018-01-10T18:42:51.519Z,13.30
2018-01-10T18:47:52.851Z,12.80
2018-01-10T18:52:54.184Z,11.87
2018-01-10T18:57:55.517Z,15.40
2018-01-10T19:02:56.982Z,14.60
2018-01-10T19:07:58.370Z,10.30
2018-01-10T19:12:59.672Z,10.47
2018-01-10T19:18:01.912Z,10.80
2018-01-10T19:23:03.320Z,11.03
2018-01-10T19:28:05.392Z,11.43
2018-01-10T19:33:06.708Z,11.60
2018-01-10T19:38:08.847Z,12.50
2018-01-10T19:43:10.299Z,12.20
2018-01-10T19:48:11.629Z,10.83
2018-01-10T19:53:13.866Z,10.60
2018-01-10T19:58:15.237Z,12.97
2018-01-10T20:03:16.607Z,14.90
2018-01-10T20:08:17.987Z,13.43
2018-01-10T20:13:21.210Z,12.50
2018-01-10T20:18:23.626Z,13.10
2018-01-10T20:23:25.061Z,12.83
2018-01-10T20:28:26.436Z,12.83
2018-01-10T20:33:27.848Z,11.40
2018-01-10T20:38:29.202Z,11.60
2018-01-10T20:43:31.940Z,12.77
2018-01-10T20:48:33.301Z,12.93
2018-01-10T20:53:35.386Z,13.10
2018-01-10T20:58:36.850Z,13.90
2018-01-10T21:03:38.411Z,10.60
2018-01-10T21:08:40.467Z,10.37
2018-01-10T21:13:41.823Z,11.50
2018-01-10T21:18:43.120Z,11.57
2018-01-10T21:23:44.477Z,10.30
2018-01-10T21:28:46.523Z,10.67
2018-01-10T21:33:47.915Z,10.90
2018-01-10T21:38:49.226Z,11.47
2018-01-10T21:43:51.596Z,10.77
2018-01-10T21:48:53.032Z,11.10
2018-01-10T21:53:54.407Z,10.50
2018-01-10T21:58:55.733Z,10.90
2018-01-10T22:03:57.329Z,11.53
2018-01-10T22:08:58.715Z,12.60
2018-01-10T22:14:00.039Z,12.67
2018-01-10T22:19:01.404Z,20.40
2018-01-10T22:24:07.679Z,20.20
2018-01-10T22:29:09.109Z,19.57
2018-01-10T22:34:12.172Z,14.73
2018-01-10T22:39:13.505Z,12.90
2018-01-10T22:44:14.887Z,11.30
2018-01-10T22:49:16.304Z,11.07
2018-01-10T22:54:18.397Z,10.17
2018-01-10T22:59:19.723Z,9.90
2018-01-10T23:04:21.072Z,10.43
2018-01-10T23:09:24.563Z,10.70
2018-01-10T23:19:42.571Z,8.83
2018-01-10T23:24:43.987Z,9.37
2018-01-10T23:29:45.289Z,10.80
2018-01-10T23:34:46.606Z,11.00
2018-01-10T23:39:47.912Z,10.03
2018-01-10T23:44:49.212Z,11.50
2018-01-10T23:49:50.514Z,11.07
2018-01-10T23:54:52.559Z,11.23
2018-01-10T23:59:53.851Z,10.50
